createdAt,value
2023-04-16T00:00:13.516Z,11.45
2023-04-16T00:01:13.606Z,11.20
2023-04-16T00:02:13.774Z,11.24
2023-04-16T00:03:13.823Z,11.40
2023-04-16T00:04:13.798Z,11.43
2023-04-16T00:05:13.924Z,11.23
2023-04-16T00:06:13.878Z,11.41
2023-04-16T00:07:13.933Z,11.51
2023-04-16T00:08:13.975Z,11.67
2023-04-16T00:09:14.053Z,11.78
2023-04-16T00:10:14.933Z,11.92
2023-04-16T00:11:14.124Z,11.74
2023-04-16T00:12:14.188Z,11.72
2023-04-16T00:13:14.201Z,11.64
2023-04-16T00:14:14.197Z,11.62
2023-04-16T00:15:14.201Z,11.71
2023-04-16T00:16:14.293Z,11.75
2023-04-16T00:17:14.306Z,11.78
2023-04-16T00:18:14.341Z,11.55
2023-04-16T00:19:14.374Z,11.40
2023-04-16T00:20:14.467Z,11.19
2023-04-16T00:21:14.459Z,11.22
2023-04-16T00:22:14.454Z,11.24
2023-04-16T00:23:14.482Z,11.12
2023-04-16T00:24:14.517Z,11.29
2023-04-16T00:25:14.524Z,11.27
2023-04-16T00:26:14.519Z,11.27
2023-04-16T00:27:14.543Z,11.31
2023-04-16T00:28:14.571Z,11.41
2023-04-16T00:29:14.561Z,11.44
2023-04-16T00:30:14.567Z,11.31
2023-04-16T00:31:14.639Z,11.26
2023-04-16T00:32:14.513Z,11.29
2023-04-16T00:33:14.593Z,11.47
2023-04-16T00:34:14.617Z,11.17
2023-04-16T00:35:14.642Z,11.38
2023-04-16T00:36:14.624Z,11.53
2023-04-16T00:37:14.657Z,11.67
2023-04-16T00:38:14.698Z,11.69
2023-04-16T00:39:14.841Z,11.78
2023-04-16T00:40:14.718Z,11.86
2023-04-16T00:41:14.712Z,11.79
2023-04-16T00:42:14.810Z,11.88
2023-04-16T00:43:14.737Z,11.95
2023-04-16T00:44:14.761Z,11.86
2023-04-16T00:45:14.838Z,11.77
2023-04-16T00:46:14.953Z,11.65
2023-04-16T00:47:15.108Z,11.57
2023-04-16T00:48:15.045Z,11.61
2023-04-16T00:49:15.041Z,11.37
2023-04-16T00:50:15.142Z,11.50
2023-04-16T00:51:15.240Z,11.58
2023-04-16T00:52:15.258Z,11.60
2023-04-16T00:53:15.326Z,11.72
2023-04-16T00:54:15.368Z,11.84
2023-04-16T00:55:15.444Z,11.74
2023-04-16T00:56:15.918Z,11.88
2023-04-16T00:57:15.581Z,11.81
2023-04-16T00:58:15.605Z,11.61
2023-04-16T00:59:15.620Z,11.30
2023-04-16T01:00:15.630Z,11.24
2023-04-16T01:01:15.661Z,11.13
2023-04-16T01:02:15.726Z,11.03
2023-04-16T01:03:15.822Z,11.16
2023-04-16T01:04:15.781Z,11.26
2023-04-16T01:05:15.686Z,11.41
2023-04-16T01:06:15.789Z,11.55
2023-04-16T01:07:15.800Z,11.64
2023-04-16T01:08:15.852Z,11.71
2023-04-16T01:09:15.915Z,11.78
2023-04-16T01:10:15.950Z,11.85
2023-04-16T01:11:15.958Z,11.96
2023-04-16T01:12:15.978Z,12.00
2023-04-16T01:13:15.987Z,12.09
2023-04-16T01:14:16.013Z,12.13
2023-04-16T01:15:16.057Z,12.06
2023-04-16T01:16:16.123Z,12.10
2023-04-16T01:17:16.076Z,12.09
2023-04-16T01:18:16.073Z,12.07
2023-04-16T01:19:16.148Z,12.09
2023-04-16T01:20:16.168Z,12.05
2023-04-16T01:21:16.200Z,12.13
2023-04-16T01:22:16.242Z,12.12
2023-04-16T01:23:16.212Z,12.12
2023-04-16T01:24:16.229Z,12.12
2023-04-16T01:25:16.247Z,12.13
2023-04-16T01:26:16.287Z,12.16
2023-04-16T01:27:16.280Z,12.19
2023-04-16T01:28:16.202Z,12.20
2023-04-16T01:29:16.278Z,12.15
2023-04-16T01:30:16.321Z,11.96
2023-04-16T01:31:16.425Z,12.02
2023-04-16T01:32:16.530Z,12.09
2023-04-16T01:33:16.507Z,12.09
2023-04-16T01:34:16.500Z,12.17
2023-04-16T01:35:16.535Z,12.22
2023-04-16T01:36:16.583Z,12.23
2023-04-16T01:37:16.570Z,12.26
2023-04-16T01:38:16.602Z,12.27
2023-04-16T01:39:16.639Z,12.30
2023-04-16T01:40:16.632Z,12.32
2023-04-16T01:41:16.586Z,12.24
2023-04-16T01:42:16.601Z,11.89
2023-04-16T01:43:16.676Z,11.69
2023-04-16T01:44:16.677Z,11.45
2023-04-16T01:45:16.642Z,11.22
2023-04-16T01:46:16.686Z,11.17
2023-04-16T01:47:16.681Z,11.07
2023-04-16T01:48:16.727Z,10.99
2023-04-16T01:49:16.726Z,10.95
2023-04-16T01:50:16.798Z,10.94
2023-04-16T01:51:16.805Z,10.88
2023-04-16T01:52:16.844Z,10.91
2023-04-16T01:53:16.922Z,10.85
2023-04-16T01:54:16.953Z,10.95
2023-04-16T01:55:16.977Z,10.98
2023-04-16T01:56:16.988Z,10.99
2023-04-16T01:57:16.987Z,11.13
2023-04-16T01:58:17.050Z,11.24
2023-04-16T01:59:17.133Z,11.35
2023-04-16T02:00:17.208Z,11.50
2023-04-16T02:01:17.249Z,11.62
2023-04-16T02:02:17.424Z,11.61
2023-04-16T02:03:17.510Z,11.55
2023-04-16T02:04:17.436Z,11.48
2023-04-16T02:05:17.516Z,11.43
2023-04-16T02:06:17.515Z,11.38
2023-04-16T02:07:17.502Z,11.53
2023-04-16T02:08:17.492Z,11.47
2023-04-16T02:09:17.510Z,11.51
2023-04-16T02:10:17.543Z,11.38
2023-04-16T02:11:17.535Z,11.37
2023-04-16T02:12:17.603Z,11.47
2023-04-16T02:13:17.710Z,11.53
2023-04-16T02:14:17.823Z,11.57
2023-04-16T02:15:17.930Z,11.50
2023-04-16T02:16:18.018Z,11.50
2023-04-16T02:17:17.957Z,11.55
2023-04-16T02:18:18.013Z,11.64
2023-04-16T02:19:18.060Z,11.58
2023-04-16T02:20:18.164Z,11.62
2023-04-16T02:21:18.164Z,11.72
2023-04-16T02:22:18.229Z,11.79
2023-04-16T02:23:18.308Z,11.85
2023-04-16T02:24:18.363Z,11.95
2023-04-16T02:25:18.397Z,12.05
2023-04-16T02:26:18.454Z,12.10
2023-04-16T02:27:18.455Z,12.12
2023-04-16T02:28:18.474Z,12.00
2023-04-16T02:29:18.526Z,11.97
2023-04-16T02:30:18.600Z,11.68
2023-04-16T02:31:18.712Z,11.69
2023-04-16T02:32:18.720Z,11.65
2023-04-16T02:33:18.791Z,11.54
2023-04-16T02:34:18.829Z,11.45
2023-04-16T02:35:18.901Z,11.45
2023-04-16T02:36:18.923Z,11.44
2023-04-16T02:37:18.996Z,11.60
2023-04-16T02:38:18.974Z,11.74
2023-04-16T02:39:18.968Z,11.82
2023-04-16T02:40:18.998Z,11.93
2023-04-16T02:41:18.971Z,11.96
2023-04-16T02:42:19.037Z,12.02
2023-04-16T02:43:18.998Z,11.86
2023-04-16T02:44:18.944Z,11.68
2023-04-16T02:45:18.973Z,11.54
2023-04-16T02:46:19.080Z,11.54
2023-04-16T02:47:18.997Z,11.61
2023-04-16T02:48:19.009Z,11.69
2023-04-16T02:49:19.082Z,11.79
2023-04-16T02:50:19.191Z,11.86
2023-04-16T02:51:19.191Z,11.89
2023-04-16T02:52:19.210Z,11.97
2023-04-16T02:53:19.250Z,12.03
2023-04-16T02:54:19.258Z,12.10
2023-04-16T02:55:19.385Z,12.12
2023-04-16T02:56:19.393Z,12.19
2023-04-16T02:57:19.406Z,12.20
2023-04-16T02:58:19.492Z,12.23
2023-04-16T02:59:19.601Z,12.24
2023-04-16T03:00:19.623Z,12.24
2023-04-16T03:01:19.661Z,12.07
2023-04-16T03:02:19.675Z,12.13
2023-04-16T03:03:19.716Z,12.15
2023-04-16T03:04:19.736Z,12.07
2023-04-16T03:05:19.682Z,12.12
2023-04-16T03:06:19.667Z,12.03
2023-04-16T03:07:19.718Z,11.93
2023-04-16T03:08:19.706Z,11.99
2023-04-16T03:09:19.737Z,12.00
2023-04-16T03:10:19.746Z,12.03
2023-04-16T03:11:19.766Z,11.93
2023-04-16T03:12:19.771Z,11.95
2023-04-16T03:13:19.798Z,11.97
2023-04-16T03:14:19.820Z,12.02
2023-04-16T03:15:19.852Z,12.03
2023-04-16T03:16:20.221Z,12.03
2023-04-16T03:17:19.932Z,12.03
2023-04-16T03:18:20.028Z,12.07
2023-04-16T03:19:20.114Z,12.06
2023-04-16T03:20:20.312Z,12.00
2023-04-16T03:21:20.283Z,12.03
2023-04-16T03:22:20.294Z,12.00
2023-04-16T03:23:20.284Z,11.99
2023-04-16T03:24:20.372Z,12.02
2023-04-16T03:25:20.326Z,12.00
2023-04-16T03:26:20.310Z,11.97
2023-04-16T03:27:20.366Z,12.00
2023-04-16T03:28:20.418Z,12.00
2023-04-16T03:29:20.368Z,12.05
2023-04-16T03:30:20.410Z,12.06
2023-04-16T03:31:20.431Z,12.12
2023-04-16T03:32:20.554Z,12.13
2023-04-16T03:33:20.466Z,12.03
2023-04-16T03:34:20.497Z,12.05
2023-04-16T03:35:20.511Z,12.07
2023-04-16T03:36:20.542Z,12.13
2023-04-16T03:37:20.575Z,12.13
2023-04-16T03:38:20.538Z,12.12
2023-04-16T03:39:20.628Z,12.10
2023-04-16T03:40:20.591Z,12.10
2023-04-16T03:41:20.579Z,12.02
2023-04-16T03:42:20.606Z,12.02
2023-04-16T03:43:20.682Z,11.88
2023-04-16T03:44:20.756Z,11.90
2023-04-16T03:45:20.820Z,11.84
2023-04-16T03:46:21.032Z,11.86
2023-04-16T03:47:20.973Z,11.85
2023-04-16T03:48:20.966Z,11.86
2023-04-16T03:49:21.126Z,11.96
2023-04-16T03:50:21.174Z,12.03
2023-04-16T03:51:21.174Z,12.05
2023-04-16T03:52:21.180Z,12.02
2023-04-16T03:53:21.216Z,12.10
2023-04-16T03:54:22.742Z,12.12
2023-04-16T03:55:21.188Z,12.15
2023-04-16T03:56:21.216Z,12.12
2023-04-16T03:57:21.197Z,12.17
2023-04-16T03:58:21.199Z,12.10
2023-04-16T03:59:21.255Z,12.13
2023-04-16T04:00:21.574Z,12.06
2023-04-16T04:01:21.210Z,11.93
2023-04-16T04:02:21.393Z,11.88
2023-04-16T04:03:22.309Z,11.85
2023-04-16T04:04:21.341Z,11.84
2023-04-16T04:05:21.306Z,11.77
2023-04-16T04:06:21.333Z,11.74
2023-04-16T04:07:21.380Z,11.53
2023-04-16T04:08:21.426Z,11.38
2023-04-16T04:09:21.500Z,11.41
2023-04-16T04:10:21.510Z,11.50
2023-04-16T04:11:21.560Z,11.45
2023-04-16T04:12:21.596Z,11.50
2023-04-16T04:13:21.643Z,11.60
2023-04-16T04:14:21.701Z,11.60
2023-04-16T04:15:21.751Z,11.65
2023-04-16T04:16:21.876Z,11.58
2023-04-16T04:17:21.765Z,11.67
2023-04-16T04:18:21.773Z,11.68
2023-04-16T04:19:21.783Z,11.74
2023-04-16T04:20:21.754Z,11.81
2023-04-16T04:21:21.773Z,11.85
2023-04-16T04:22:21.776Z,11.86
2023-04-16T04:23:21.782Z,11.88
2023-04-16T04:24:21.816Z,11.90
2023-04-16T04:25:21.840Z,11.97
2023-04-16T04:26:21.882Z,11.97
2023-04-16T04:27:21.817Z,11.99
2023-04-16T04:28:21.862Z,12.03
2023-04-16T04:29:21.871Z,12.10
2023-04-16T04:30:21.921Z,12.10
2023-04-16T04:31:21.892Z,12.13
2023-04-16T04:32:21.997Z,12.13
2023-04-16T04:33:21.976Z,12.10
2023-04-16T04:34:22.023Z,12.09
2023-04-16T04:35:22.056Z,12.03
2023-04-16T04:36:22.005Z,12.07
2023-04-16T04:37:22.068Z,12.00
2023-04-16T04:38:22.109Z,12.00
2023-04-16T04:39:22.094Z,11.99
2023-04-16T04:40:22.205Z,11.92
2023-04-16T04:41:22.099Z,11.89
2023-04-16T04:42:22.115Z,11.93
2023-04-16T04:43:22.059Z,11.92
2023-04-16T04:44:22.060Z,11.95
2023-04-16T04:45:22.070Z,12.03
2023-04-16T04:46:22.271Z,12.05
2023-04-16T04:47:22.151Z,12.07
2023-04-16T04:48:22.180Z,12.12
2023-04-16T04:49:22.155Z,12.06
2023-04-16T04:50:22.197Z,12.05
2023-04-16T04:51:22.217Z,11.88
2023-04-16T04:52:22.183Z,11.88
2023-04-16T04:53:22.240Z,11.90
2023-04-16T04:54:22.321Z,11.97
2023-04-16T04:55:22.395Z,12.03
2023-04-16T04:56:22.412Z,12.07
2023-04-16T04:57:22.419Z,12.10
2023-04-16T04:58:22.426Z,12.17
2023-04-16T04:59:22.460Z,12.20
2023-04-16T05:00:22.512Z,12.24
2023-04-16T05:01:22.488Z,12.26
2023-04-16T05:02:22.612Z,12.27
2023-04-16T05:03:22.688Z,12.27
2023-04-16T05:04:22.500Z,12.29
2023-04-16T05:05:22.545Z,12.29
2023-04-16T05:06:23.476Z,12.30
2023-04-16T05:07:22.503Z,12.32
2023-04-16T05:08:22.503Z,12.30
2023-04-16T05:09:22.523Z,12.26
2023-04-16T05:10:22.511Z,12.29
2023-04-16T05:11:22.537Z,12.26
2023-04-16T05:12:22.564Z,12.27
2023-04-16T05:13:22.554Z,12.22
2023-04-16T05:14:22.601Z,12.17
2023-04-16T05:15:22.619Z,11.90
2023-04-16T05:16:22.738Z,11.90
2023-04-16T05:17:22.722Z,11.99
2023-04-16T05:18:22.732Z,12.03
2023-04-16T05:19:22.786Z,12.07
2023-04-16T05:20:22.876Z,12.12
2023-04-16T05:21:22.884Z,12.22
2023-04-16T05:22:22.946Z,12.29
2023-04-16T05:23:23.000Z,12.27
2023-04-16T05:24:23.063Z,12.32
2023-04-16T05:25:23.161Z,12.24
2023-04-16T05:26:23.186Z,12.12
2023-04-16T05:27:23.249Z,12.02
2023-04-16T05:28:23.305Z,12.09
2023-04-16T05:29:23.343Z,12.17
2023-04-16T05:30:23.395Z,12.20
2023-04-16T05:31:23.483Z,12.29
2023-04-16T05:32:23.521Z,12.30
2023-04-16T05:33:24.056Z,12.32
2023-04-16T05:34:23.607Z,12.39
2023-04-16T05:35:23.638Z,12.41
2023-04-16T05:36:23.645Z,12.43
2023-04-16T05:37:23.727Z,12.23
2023-04-16T05:38:23.785Z,12.07
2023-04-16T05:39:23.962Z,11.84
2023-04-16T05:40:23.923Z,11.68
2023-04-16T05:41:23.952Z,11.62
2023-04-16T05:42:24.052Z,11.54
2023-04-16T05:43:24.050Z,11.45
2023-04-16T05:44:24.100Z,11.50
2023-04-16T05:45:25.127Z,11.38
2023-04-16T05:46:24.147Z,11.40
2023-04-16T05:47:24.159Z,11.43
2023-04-16T05:48:24.166Z,11.38
2023-04-16T05:49:24.180Z,11.24
2023-04-16T05:50:24.214Z,11.24
2023-04-16T05:51:24.216Z,11.40
2023-04-16T05:52:24.241Z,11.48
2023-04-16T05:53:24.258Z,11.58
2023-04-16T05:54:24.327Z,11.77
2023-04-16T05:55:24.381Z,11.84
2023-04-16T05:56:24.431Z,11.99
2023-04-16T05:57:24.481Z,12.09
2023-04-16T05:58:24.560Z,12.17
2023-04-16T05:59:24.592Z,12.22
2023-04-16T06:00:24.592Z,12.30
2023-04-16T06:01:24.629Z,12.33
2023-04-16T06:02:24.797Z,12.37
2023-04-16T06:03:24.708Z,12.45
2023-04-16T06:04:24.658Z,12.54
2023-04-16T06:05:24.742Z,12.58
2023-04-16T06:06:24.775Z,12.67
2023-04-16T06:07:24.776Z,12.62
2023-04-16T06:08:24.861Z,12.43
2023-04-16T06:09:24.902Z,12.29
2023-04-16T06:10:24.939Z,12.07
2023-04-16T06:11:24.937Z,12.15
2023-04-16T06:12:25.066Z,12.16
2023-04-16T06:13:25.069Z,12.17
2023-04-16T06:14:25.139Z,12.27
2023-04-16T06:15:25.143Z,12.37
2023-04-16T06:16:25.294Z,12.47
2023-04-16T06:17:25.306Z,12.43
2023-04-16T06:18:25.283Z,12.54
2023-04-16T06:19:25.332Z,12.64
2023-04-16T06:20:25.426Z,12.65
2023-04-16T06:21:25.348Z,12.68
2023-04-16T06:22:25.441Z,12.72
2023-04-16T06:23:25.460Z,12.74
2023-04-16T06:24:25.551Z,12.77
2023-04-16T06:25:25.588Z,12.84
2023-04-16T06:26:25.645Z,12.89
2023-04-16T06:27:25.726Z,12.94
2023-04-16T06:28:25.796Z,12.72
2023-04-16T06:29:37.074Z,12.75
2023-04-16T06:30:26.798Z,12.68
2023-04-16T06:31:25.792Z,12.65
2023-04-16T06:32:25.788Z,12.68
2023-04-16T06:33:25.778Z,12.71
2023-04-16T06:34:25.783Z,12.79
2023-04-16T06:35:25.776Z,12.84
2023-04-16T06:36:25.753Z,12.74
2023-04-16T06:37:25.707Z,12.61
2023-04-16T06:38:25.719Z,12.62
2023-04-16T06:39:25.984Z,12.65
2023-04-16T06:40:25.740Z,12.71
2023-04-16T06:41:25.746Z,12.72
2023-04-16T06:42:25.698Z,12.65
2023-04-16T06:43:25.717Z,12.61
2023-04-16T06:44:25.669Z,12.72
2023-04-16T06:45:25.733Z,12.79
2023-04-16T06:46:25.796Z,12.86
2023-04-16T06:47:25.851Z,12.86
2023-04-16T06:48:25.791Z,12.91
2023-04-16T06:49:25.798Z,12.89
2023-04-16T06:50:25.898Z,12.95
2023-04-16T06:51:25.912Z,13.02
2023-04-16T06:52:25.920Z,13.00
2023-04-16T06:53:26.037Z,12.86
2023-04-16T06:54:25.958Z,12.94
2023-04-16T06:55:25.985Z,12.94
2023-04-16T06:56:26.004Z,12.69
2023-04-16T06:57:26.123Z,12.78
2023-04-16T06:58:26.147Z,12.77
2023-04-16T06:59:26.199Z,12.72
2023-04-16T07:00:26.249Z,12.79
2023-04-16T07:01:26.283Z,12.71
2023-04-16T07:02:26.398Z,12.82
2023-04-16T07:03:26.489Z,12.95
2023-04-16T07:04:26.418Z,12.94
2023-04-16T07:05:26.484Z,13.07
2023-04-16T07:06:26.417Z,13.16
2023-04-16T07:07:26.446Z,13.23
2023-04-16T07:08:26.465Z,13.24
2023-04-16T07:09:26.502Z,13.07
2023-04-16T07:10:26.512Z,13.19
2023-04-16T07:11:26.577Z,13.09
2023-04-16T07:12:26.633Z,13.05
2023-04-16T07:13:26.760Z,13.12
2023-04-16T07:14:26.742Z,13.09
2023-04-16T07:15:26.784Z,13.17
2023-04-16T07:16:26.816Z,13.13
2023-04-16T07:17:26.919Z,12.94
2023-04-16T07:18:26.934Z,13.05
2023-04-16T07:19:26.890Z,13.13
2023-04-16T07:20:26.942Z,13.20
2023-04-16T07:21:26.972Z,13.29
2023-04-16T07:22:26.949Z,13.37
2023-04-16T07:23:26.975Z,13.43
2023-04-16T07:24:27.002Z,13.34
2023-04-16T07:25:27.032Z,13.27
2023-04-16T07:26:27.029Z,13.26
2023-04-16T07:27:27.043Z,13.36
2023-04-16T07:28:27.052Z,13.40
2023-04-16T07:29:27.017Z,13.47
2023-04-16T07:30:27.057Z,13.51
2023-04-16T07:31:27.100Z,13.57
2023-04-16T07:32:27.213Z,13.60
2023-04-16T07:33:27.173Z,13.62
2023-04-16T07:34:27.199Z,13.62
2023-04-16T07:35:27.246Z,13.58
2023-04-16T07:36:27.247Z,13.46
2023-04-16T07:37:27.242Z,13.49
2023-04-16T07:38:27.271Z,13.33
2023-04-16T07:39:27.292Z,13.41
2023-04-16T07:40:27.365Z,13.51
2023-04-16T07:41:27.352Z,13.55
2023-04-16T07:42:27.446Z,13.53
2023-04-16T07:43:27.537Z,13.54
2023-04-16T07:44:27.593Z,13.50
2023-04-16T07:45:27.663Z,13.55
2023-04-16T07:46:30.723Z,13.60
2023-04-16T07:47:28.694Z,13.65
2023-04-16T07:48:27.650Z,13.75
2023-04-16T07:49:27.582Z,13.79
2023-04-16T07:50:27.673Z,13.84
2023-04-16T07:51:27.648Z,13.65
2023-04-16T07:52:27.608Z,13.55
2023-04-16T07:53:27.639Z,13.65
2023-04-16T07:54:29.071Z,13.68
2023-04-16T07:55:27.606Z,13.68
2023-04-16T07:56:27.575Z,13.72
2023-04-16T07:57:27.898Z,13.79
2023-04-16T07:58:27.568Z,13.82
2023-04-16T07:59:27.897Z,13.85
2023-04-16T08:00:27.691Z,13.90
2023-04-16T08:01:27.722Z,13.92
2023-04-16T08:02:27.848Z,14.02
2023-04-16T08:03:28.086Z,14.03
2023-04-16T08:04:28.032Z,14.12
2023-04-16T08:05:27.899Z,14.01
2023-04-16T08:06:27.904Z,14.06
2023-04-16T08:07:27.891Z,14.01
2023-04-16T08:08:27.904Z,14.09
2023-04-16T08:09:27.913Z,14.16
2023-04-16T08:10:27.931Z,13.99
2023-04-16T08:11:27.937Z,14.08
2023-04-16T08:12:27.898Z,13.92
2023-04-16T08:13:27.942Z,13.90
2023-04-16T08:14:27.964Z,13.99
2023-04-16T08:15:28.065Z,14.15
2023-04-16T08:16:28.138Z,14.26
2023-04-16T08:17:28.063Z,14.33
2023-04-16T08:18:28.130Z,14.43
2023-04-16T08:19:28.198Z,14.34
2023-04-16T08:20:28.293Z,14.41
2023-04-16T08:21:28.257Z,14.47
2023-04-16T08:22:28.317Z,14.32
2023-04-16T08:23:28.395Z,14.30
2023-04-16T08:24:28.348Z,14.27
2023-04-16T08:25:28.387Z,14.30
2023-04-16T08:26:28.386Z,14.36
2023-04-16T08:27:28.360Z,14.39
2023-04-16T08:28:28.366Z,14.43
2023-04-16T08:29:28.415Z,14.57
2023-04-16T08:30:28.390Z,14.58
2023-04-16T08:31:28.426Z,14.61
2023-04-16T08:32:28.418Z,14.74
2023-04-16T08:33:28.403Z,14.81
2023-04-16T08:34:28.392Z,14.82
2023-04-16T08:35:28.477Z,14.64
2023-04-16T08:36:28.433Z,14.74
2023-04-16T08:37:28.475Z,14.85
2023-04-16T08:38:28.493Z,14.89
2023-04-16T08:39:28.593Z,14.95
2023-04-16T08:40:28.554Z,14.96
2023-04-16T08:41:28.522Z,14.99
2023-04-16T08:42:29.168Z,15.02
2023-04-16T08:43:28.555Z,14.86
2023-04-16T08:44:28.580Z,14.79
2023-04-16T08:45:28.615Z,14.82
2023-04-16T08:46:28.673Z,14.88
2023-04-16T08:47:28.684Z,14.88
2023-04-16T08:48:28.705Z,14.72
2023-04-16T08:49:28.796Z,14.79
2023-04-16T08:50:28.819Z,14.72
2023-04-16T08:51:28.875Z,14.68
2023-04-16T08:52:28.946Z,14.68
2023-04-16T08:53:29.341Z,14.79
2023-04-16T08:54:29.054Z,14.88
2023-04-16T08:55:29.042Z,14.82
2023-04-16T08:56:29.069Z,14.67
2023-04-16T08:57:29.099Z,14.77
2023-04-16T08:58:29.137Z,14.85
2023-04-16T08:59:29.137Z,14.79
2023-04-16T09:00:29.140Z,14.79
2023-04-16T09:01:29.212Z,14.64
2023-04-16T09:02:29.337Z,14.37
2023-04-16T09:03:29.358Z,14.43
2023-04-16T09:04:29.535Z,14.61
2023-04-16T09:05:29.327Z,14.58
2023-04-16T09:06:29.286Z,14.64
2023-04-16T09:07:29.309Z,14.32
2023-04-16T09:08:29.358Z,13.99
2023-04-16T09:09:29.407Z,14.17
2023-04-16T09:10:29.427Z,14.27
2023-04-16T09:11:29.464Z,14.40
2023-04-16T09:12:29.433Z,14.45
2023-04-16T09:13:29.436Z,14.29
2023-04-16T09:14:29.470Z,14.48
2023-04-16T09:15:29.506Z,14.60
2023-04-16T09:16:29.513Z,14.41
2023-04-16T09:17:29.533Z,14.33
2023-04-16T09:18:29.477Z,14.40
2023-04-16T09:19:29.471Z,14.36
2023-04-16T09:20:29.545Z,14.50
2023-04-16T09:21:29.560Z,14.51
2023-04-16T09:22:29.552Z,14.48
2023-04-16T09:23:29.648Z,14.66
2023-04-16T09:24:29.622Z,14.68
2023-04-16T09:25:29.727Z,14.51
2023-04-16T09:26:29.653Z,14.72
2023-04-16T09:27:29.664Z,14.81
2023-04-16T09:28:29.683Z,14.72
2023-04-16T09:29:29.702Z,14.67
2023-04-16T09:30:29.721Z,14.66
2023-04-16T09:31:29.751Z,14.79
2023-04-16T09:32:29.789Z,14.88
2023-04-16T09:33:29.705Z,15.00
2023-04-16T09:34:29.740Z,15.15
2023-04-16T09:35:29.797Z,15.19
2023-04-16T09:36:29.761Z,14.64
2023-04-16T09:37:29.855Z,14.96
2023-04-16T09:38:29.775Z,15.06
2023-04-16T09:39:29.793Z,15.02
2023-04-16T09:40:29.796Z,14.95
2023-04-16T09:41:29.853Z,15.00
2023-04-16T09:42:29.864Z,15.12
2023-04-16T09:43:29.850Z,15.15
2023-04-16T09:44:29.860Z,15.26
2023-04-16T09:45:29.905Z,15.29
2023-04-16T09:46:29.892Z,15.32
2023-04-16T09:47:29.874Z,15.10
2023-04-16T09:48:29.950Z,15.10
2023-04-16T09:49:29.927Z,14.99
2023-04-16T09:50:30.053Z,15.09
2023-04-16T09:51:30.074Z,15.10
2023-04-16T09:52:30.159Z,15.12
2023-04-16T09:53:30.251Z,15.19
2023-04-16T09:54:30.248Z,14.94
2023-04-16T09:55:30.285Z,14.89
2023-04-16T09:56:30.284Z,15.09
2023-04-16T09:57:30.293Z,15.10
2023-04-16T09:58:30.289Z,14.98
2023-04-16T09:59:30.287Z,15.15
2023-04-16T10:00:30.293Z,15.25
2023-04-16T10:01:30.342Z,15.32
2023-04-16T10:02:30.433Z,15.13
2023-04-16T10:03:30.662Z,15.23
2023-04-16T10:04:30.496Z,15.27
2023-04-16T10:05:30.419Z,15.36
2023-04-16T10:06:30.431Z,15.51
2023-04-16T10:07:30.545Z,15.62
2023-04-16T10:08:30.408Z,15.37
2023-04-16T10:09:30.403Z,15.27
2023-04-16T10:10:30.526Z,15.32
2023-04-16T10:11:30.407Z,15.41
2023-04-16T10:12:30.467Z,15.47
2023-04-16T10:13:30.532Z,15.22
2023-04-16T10:14:30.543Z,15.09
2023-04-16T10:15:30.607Z,14.85
2023-04-16T10:16:30.623Z,14.58
2023-04-16T10:17:30.655Z,14.44
2023-04-16T10:18:30.605Z,14.71
2023-04-16T10:19:30.630Z,14.77
2023-04-16T10:20:30.730Z,14.91
2023-04-16T10:21:30.621Z,14.43
2023-04-16T10:22:30.645Z,14.54
2023-04-16T10:23:30.698Z,14.30
2023-04-16T10:24:30.764Z,14.23
2023-04-16T10:25:30.785Z,14.41
2023-04-16T10:26:30.774Z,14.51
2023-04-16T10:27:30.872Z,14.45
2023-04-16T10:28:30.788Z,14.11
2023-04-16T10:29:30.806Z,14.45
2023-04-16T10:30:30.797Z,14.56
2023-04-16T10:31:30.850Z,14.77
2023-04-16T10:32:30.838Z,15.05
2023-04-16T10:33:30.879Z,14.77
2023-04-16T10:34:30.846Z,15.10
2023-04-16T10:35:32.030Z,15.22
2023-04-16T10:36:30.879Z,15.29
2023-04-16T10:37:30.906Z,15.44
2023-04-16T10:38:30.997Z,15.41
2023-04-16T10:39:31.040Z,15.25
2023-04-16T10:40:31.099Z,15.07
2023-04-16T10:41:31.078Z,15.25
2023-04-16T10:42:31.137Z,15.10
2023-04-16T10:43:31.175Z,14.95
2023-04-16T10:44:31.226Z,14.86
2023-04-16T10:45:31.343Z,14.94
2023-04-16T10:46:31.422Z,14.95
2023-04-16T10:47:31.369Z,15.07
2023-04-16T10:48:42.338Z,15.29
2023-04-16T10:49:32.391Z,14.86
2023-04-16T10:50:31.428Z,14.98
2023-04-16T10:51:31.425Z,15.33
2023-04-16T10:52:31.363Z,15.49
2023-04-16T10:53:31.373Z,15.61
2023-04-16T10:54:31.377Z,15.84
2023-04-16T10:55:31.402Z,16.02
2023-04-16T10:56:31.334Z,16.19
2023-04-16T10:57:32.131Z,15.88
2023-04-16T10:58:31.361Z,15.86
2023-04-16T10:59:31.343Z,15.74
2023-04-16T11:00:31.656Z,15.81
2023-04-16T11:01:31.409Z,15.78
2023-04-16T11:02:31.544Z,15.64
2023-04-16T11:03:31.481Z,15.68
2023-04-16T11:04:31.483Z,15.62
2023-04-16T11:05:31.588Z,15.15
2023-04-16T11:06:31.583Z,15.33
2023-04-16T11:07:31.626Z,15.26
2023-04-16T11:08:32.056Z,15.23
2023-04-16T11:09:31.697Z,15.44
2023-04-16T11:10:31.812Z,15.53
2023-04-16T11:11:31.796Z,15.78
2023-04-16T11:12:31.803Z,15.89
2023-04-16T11:13:31.841Z,16.05
2023-04-16T11:14:31.832Z,16.09
2023-04-16T11:15:31.969Z,16.27
2023-04-16T11:16:31.950Z,16.36
2023-04-16T11:17:32.027Z,16.27
2023-04-16T11:18:32.095Z,16.37
2023-04-16T11:19:32.154Z,16.08
2023-04-16T11:20:32.161Z,16.29
2023-04-16T11:21:32.230Z,16.40
2023-04-16T11:22:32.260Z,16.13
2023-04-16T11:23:32.335Z,16.26
2023-04-16T11:24:32.365Z,16.37
2023-04-16T11:25:32.441Z,16.50
2023-04-16T11:26:32.737Z,16.49
2023-04-16T11:27:32.410Z,16.57
2023-04-16T11:28:32.389Z,16.57
2023-04-16T11:29:32.384Z,16.44
2023-04-16T11:30:32.410Z,16.49
2023-04-16T11:31:32.496Z,16.57
2023-04-16T11:32:32.494Z,16.05
2023-04-16T11:33:32.438Z,16.01
2023-04-16T11:34:32.435Z,16.24
2023-04-16T11:35:32.450Z,16.39
2023-04-16T11:36:32.515Z,16.46
2023-04-16T11:37:32.549Z,16.56
2023-04-16T11:38:32.591Z,16.64
2023-04-16T11:39:32.648Z,16.70
2023-04-16T11:40:32.748Z,16.77
2023-04-16T11:41:32.764Z,16.79
2023-04-16T11:42:32.823Z,16.87
2023-04-16T11:43:32.792Z,16.71
2023-04-16T11:44:32.795Z,16.85
2023-04-16T11:45:32.810Z,16.92
2023-04-16T11:46:32.845Z,16.82
2023-04-16T11:47:32.927Z,16.75
2023-04-16T11:48:32.917Z,16.82
2023-04-16T11:49:33.005Z,16.94
2023-04-16T11:50:33.034Z,17.04
2023-04-16T11:51:33.092Z,17.06
2023-04-16T11:52:33.130Z,16.96
2023-04-16T11:53:33.149Z,17.02
2023-04-16T11:54:33.218Z,17.09
2023-04-16T11:55:33.251Z,17.04
2023-04-16T11:56:33.324Z,16.85
2023-04-16T11:57:33.368Z,16.84
2023-04-16T11:58:33.298Z,16.84
2023-04-16T11:59:33.368Z,16.50
2023-04-16T12:00:33.433Z,16.68
2023-04-16T12:01:33.439Z,16.57
2023-04-16T12:02:33.632Z,16.37
2023-04-16T12:03:33.677Z,16.27
2023-04-16T12:04:33.670Z,16.49
2023-04-16T12:05:33.774Z,16.57
2023-04-16T12:06:33.600Z,16.67
2023-04-16T12:07:33.657Z,16.84
2023-04-16T12:08:33.741Z,16.89
2023-04-16T12:09:33.792Z,16.99
2023-04-16T12:10:33.848Z,17.09
2023-04-16T12:11:33.891Z,16.91
2023-04-16T12:12:33.919Z,16.98
2023-04-16T12:13:33.978Z,17.06
2023-04-16T12:14:34.000Z,16.98
2023-04-16T12:15:34.021Z,16.96
2023-04-16T12:16:35.817Z,16.98
2023-04-16T12:17:34.112Z,16.88
2023-04-16T12:18:34.332Z,16.89
2023-04-16T12:19:34.084Z,16.84
2023-04-16T12:20:34.118Z,16.91
2023-04-16T12:21:34.160Z,16.87
2023-04-16T12:22:36.599Z,16.88
2023-04-16T12:23:34.259Z,16.89
2023-04-16T12:24:34.204Z,16.92
2023-04-16T12:25:34.221Z,16.94
2023-04-16T12:26:34.250Z,16.94
2023-04-16T12:27:34.184Z,17.01
2023-04-16T12:28:34.297Z,16.91
2023-04-16T12:29:34.168Z,16.92
2023-04-16T12:30:34.202Z,16.88
2023-04-16T12:31:34.163Z,16.95
2023-04-16T12:32:34.541Z,16.98
2023-04-16T12:33:34.137Z,16.91
2023-04-16T12:34:49.054Z,16.92
2023-04-16T12:35:35.182Z,16.99
2023-04-16T12:36:34.109Z,17.05
2023-04-16T12:37:34.143Z,17.09
2023-04-16T12:38:34.146Z,17.15
2023-04-16T12:39:34.117Z,17.05
2023-04-16T12:40:34.089Z,17.08
2023-04-16T12:41:34.079Z,16.98
2023-04-16T12:42:34.101Z,16.60
2023-04-16T12:43:34.092Z,16.61
2023-04-16T12:44:34.091Z,16.74
2023-04-16T12:45:34.080Z,16.74
2023-04-16T12:46:34.093Z,16.22
2023-04-16T12:47:34.124Z,15.82
2023-04-16T12:48:34.092Z,15.65
2023-04-16T12:49:34.048Z,15.78
2023-04-16T12:50:34.039Z,15.86
2023-04-16T12:51:34.078Z,15.68
2023-04-16T12:52:34.077Z,15.30